Terminal Aerodrome Forecast
Issued by NWS

Home | Current Version | Previous Version | Text Only | Print | Product List | Glossary On
Versions: 1 2 3 4 5 6 7 8 9 10 11 12 13 14 15 16 17 18
000
FTUS41 KBTV 252330
TAFRUT
TAF
KRUT 252330Z 2600/2624 17004KT P6SM SCT025 BKN035
      TEMPO 2600/2602 BKN025
     FM260300 VRB03KT P6SM FEW200
     FM261300 12007KT P6SM SCT250
     FM261600 14007KT P6SM VCSH BKN080
     FM262100 14006KT P6SM VCSH OVC030=

USA.gov is the U.S. government's official web portal to all federal, state and local government web resources and services.